Boca Grande, FL

12:04 PM EDT on October 23, 2014 (GMT -0400)
Gasparilla Marina | Change Station
CLOSE
Current Station
Personal Weather Station
Location: Placida, FL
Elevation: 0 ft
Nearby Weather Stations

Elev 0 ft 26.83 °N, 82.26 °W | Updated 22 seconds ago

Clear
Clear
81.9 °F
Feels Like 85 °F
N
8.9
Wind Variable Wind from East

Today
High -- | Low -- °F
--% Chance of Precip.
Yesterday
High -- | Low -- °F
Precip. -- in
7:33 AM 6:53 PM
Waning Crescent, 0% visible
Pressure 29.99 in
Visibility 10.0 miles
Clouds Few 4300 ft
Heat Index 85 °F
Dew Point 68 °F
Humidity 64%
Rainfall 0.00 in
Snow Depth Not available.
UV 8 out of 12
Pollen 6.40 out of 12
Air Quality Not available.
Flu Activity Local Activity
METAR KPGD 231553Z 10013G21KT 10SM FEW043 27/18 A2998 RMK AO2 SLP154 T02720183

More Conditions Fewer Conditions

Pressure 29.99 in
Visibility 10.0 miles
Clouds Few 4300 ft
Heat Index 85 °F
Dew Point 68 °F
Humidity 64%
Rainfall 0.00 in
Snow Depth Not available.
UV 8 out of 12
Pollen 6.40 out of 12
Air Quality Not available.
Flu Activity Local Activity
METAR KPGD 231553Z 10013G21KT 10SM FEW043 27/18 A2998 RMK AO2 SLP154 T02720183

More Conditions Fewer Conditions

10-Day Weather Forecast

Almanac

Astronomy

Oct. 23, 2014 Rise Set
Actual Time 7:33 AM EDT 6:53 PM EDT
Civil Twilight 7:09 AM EDT 7:16 PM EDT
Nautical Twilight 6:42 AM EDT 7:44 PM EDT
Astronomical Twilight 6:15 AM EDT 8:11 PM EDT
Moon 7:13 AM EDT 6:54 PM EDT
Length of Visible Light 12h 07m
Length of Day
11h 20m
Tomorrow will be 1m 27s shorter.
Waning Crescent, 0% of the Moon is Illuminated
Today
Waning Crescent
Oct 23
New
Oct 30
First Quarter
Nov 6
Full
Nov 14
Last Quarter

Today's Extremes

State Highs State Lows

Community

WunderPhotos

Upload Photos

1,764,293 photos uploaded!

WunderBlogs® & News

By Dr. Jeff Masters
Director of Meteorology, Weather Underground
By Kari Strenfel
Meteorologist, Weather Underground
By Christopher C. Burt
Weather Historian, Weather Underground
October 23, 2014
October 23, 2014
October 23, 2014

Nearby

Snow Depth

Station Depth Elevation
No new snow has been reported.

Earthquake Activity

City Distance Mag. Time & Date
No recent earthquake activity has been reported nearby.
Minimum magnitude displayed is 2.5.

Coastal Water Temperatures

Place Temperature
No Stations Reporting

Nearby Weather Stations